Time;durP1;ratioP1;P1;durP2;ratioP2;P2;SDS_P1;SDS_P2;PMS_P1;PMS_P2;Temp;Humidity;BMP_temperature;BMP_pressure;BME280_temperature;BME280_humidity;BME280_pressure;Samples;Min_cycle;Max_cycle;Signal;HPM_P1;HPM_P2
2023/12/01 00:01:12;;;;;;;56.30;31.73;;;0.10;99.90;;;;;;5134437;27;20529;-67
2023/12/01 00:03:38;;;;;;;61.07;33.23;;;0.10;99.90;;;;;;5134416;27;20168;-67
2023/12/01 00:06:04;;;;;;;57.50;31.77;;;0.20;99.90;;;;;;5115359;27;20183;-67
2023/12/01 00:08:30;;;;;;;59.13;32.87;;;0.20;99.90;;;;;;5134285;27;20195;-67
2023/12/01 00:10:55;;;;;;;55.20;31.47;;;0.10;99.90;;;;;;5115809;27;20698;-67
2023/12/01 00:13:21;;;;;;;61.53;30.63;;;0.10;99.90;;;;;;5115872;27;20557;-67
2023/12/01 00:15:47;;;;;;;59.07;32.60;;;0.20;99.90;;;;;;5134365;27;20163;-67
2023/12/01 00:18:13;;;;;;;60.20;32.93;;;0.20;99.90;;;;;;5134206;27;20188;-67
2023/12/01 00:20:39;;;;;;;61.97;32.40;;;0.20;99.90;;;;;;5134046;27;20568;-66
2023/12/01 00:23:04;;;;;;;56.23;31.97;;;0.20;99.90;;;;;;5134446;27;20255;-67
2023/12/01 00:25:30;;;;;;;58.23;31.17;;;0.30;99.90;;;;;;5134518;27;20221;-67
2023/12/01 00:27:58;;;;;;;63.73;34.57;;;0.30;99.90;;;;;;5134064;27;20190;-67
2023/12/01 00:30:28;;;;;;;54.67;29.40;;;0.30;99.90;;;;;;5115645;28;20171;-67
2023/12/01 00:32:54;;;;;;;55.27;31.23;;;0.30;99.90;;;;;;5134304;27;20662;-67
2023/12/01 00:35:20;;;;;;;59.03;31.33;;;0.30;99.90;;;;;;5115568;28;20266;-67
2023/12/01 00:37:46;;;;;;;55.63;31.23;;;0.30;99.90;;;;;;5133655;28;20262;-67
2023/12/01 00:40:12;;;;;;;65.30;33.40;;;0.30;99.90;;;;;;5134477;28;20184;-67
2023/12/01 00:42:38;;;;;;;61.30;32.90;;;0.30;99.90;;;;;;5115574;28;20176;-67
2023/12/01 00:45:05;;;;;;;55.53;31.37;;;0.30;99.90;;;;;;5115332;28;20662;-67
2023/12/01 00:47:31;;;;;;;57.73;32.30;;;0.30;99.90;;;;;;5115582;28;20260;-67
2023/12/01 00:49:57;;;;;;;66.33;34.07;;;0.30;99.90;;;;;;5133938;28;20681;-67
2023/12/01 00:52:22;;;;;;;57.10;32.03;;;0.30;99.90;;;;;;5133543;28;20192;-67
2023/12/01 00:54:48;;;;;;;55.57;32.50;;;0.30;99.90;;;;;;5134101;28;20200;-67
2023/12/01 00:57:14;;;;;;;58.47;32.97;;;0.30;99.90;;;;;;5133769;28;20258;-67
2023/12/01 00:59:40;;;;;;;59.53;32.73;;;0.40;99.90;;;;;;5115503;28;20176;-67
2023/12/01 01:02:05;;;;;;;57.40;32.27;;;0.40;99.90;;;;;;5133960;28;20167;-67
2023/12/01 01:04:31;;;;;;;57.33;32.30;;;0.40;99.90;;;;;;5133758;28;20258;-67
2023/12/01 01:06:57;;;;;;;56.70;31.67;;;0.40;99.90;;;;;;5133775;28;20203;-67
2023/12/01 01:09:23;;;;;;;56.43;32.40;;;0.30;99.90;;;;;;5133836;28;20179;-67
2023/12/01 01:11:49;;;;;;;69.47;33.90;;;0.40;99.90;;;;;;5133957;28;20217;-67
2023/12/01 01:14:14;;;;;;;64.80;34.23;;;0.40;99.90;;;;;;5133707;28;20255;-67
2023/12/01 01:16:40;;;;;;;60.33;32.50;;;0.40;99.90;;;;;;5116695;27;20191;-67
2023/12/01 01:19:06;;;;;;;65.30;33.37;;;0.40;99.90;;;;;;5137984;27;20172;-67
2023/12/01 01:21:32;;;;;;;55.47;31.10;;;0.40;99.90;;;;;;5137353;27;20199;-67
2023/12/01 01:23:58;;;;;;;56.67;31.20;;;0.40;99.90;;;;;;5137670;27;20171;-67
2023/12/01 01:26:23;;;;;;;58.03;31.23;;;0.40;99.90;;;;;;5138345;27;20375;-67
2023/12/01 01:28:49;;;;;;;59.47;33.07;;;0.40;99.90;;;;;;5137553;27;20172;-67
2023/12/01 01:31:15;;;;;;;62.37;33.00;;;0.40;99.90;;;;;;5137977;27;20202;-67
2023/12/01 01:33:41;;;;;;;61.27;32.03;;;0.40;99.90;;;;;;5138026;27;20174;-67
2023/12/01 01:36:07;;;;;;;67.37;32.47;;;0.40;99.90;;;;;;5118672;27;20183;-67
2023/12/01 01:38:33;;;;;;;65.20;33.60;;;0.40;99.90;;;;;;5137245;27;20236;-67
2023/12/01 01:40:59;;;;;;;69.87;34.67;;;0.40;99.90;;;;;;5137267;27;20605;-67
2023/12/01 01:43:24;;;;;;;69.30;35.57;;;0.40;99.90;;;;;;5137718;27;20254;-67
2023/12/01 01:46:09;;;;;;;70.37;33.73;;;0.40;99.90;;;;;;5118593;27;20195;-67
2023/12/01 01:48:35;;;;;;;69.87;33.60;;;0.40;99.90;;;;;;5137019;27;20202;-67
2023/12/01 01:51:02;;;;;;;67.57;32.17;;;0.30;99.90;;;;;;5118592;27;20231;-67
2023/12/01 01:53:29;;;;;;;73.67;31.77;;;0.30;99.90;;;;;;5137106;27;20176;-67
2023/12/01 01:55:58;;;;;;;72.60;32.30;;;0.30;99.90;;;;;;5137573;27;20187;-67
2023/12/01 01:58:25;;;;;;;63.87;32.57;;;0.30;99.90;;;;;;5137163;27;20192;-67
2023/12/01 02:00:51;;;;;;;64.37;31.83;;;0.30;99.90;;;;;;5138337;27;20536;-67
2023/12/01 02:03:18;;;;;;;57.20;30.77;;;0.30;99.90;;;;;;5119523;27;20258;-67
2023/12/01 02:05:48;;;;;;;64.37;31.77;;;0.30;99.90;;;;;;5118896;27;20653;-67
2023/12/01 02:08:19;;;;;;;59.70;30.23;;;0.30;99.90;;;;;;5136713;27;20195;-67
2023/12/01 02:10:45;;;;;;;54.83;29.63;;;0.30;99.90;;;;;;5136572;27;20233;-67
2023/12/01 02:13:14;;;;;;;64.47;31.07;;;0.40;99.90;;;;;;5137187;27;20202;-67
2023/12/01 02:15:41;;;;;;;60.30;31.97;;;0.40;99.90;;;;;;5136913;27;20207;-67
2023/12/01 02:18:20;;;;;;;68.37;34.20;;;0.50;99.90;;;;;;5136492;27;20329;-67
2023/12/01 02:20:46;;;;;;;80.10;35.03;;;0.40;99.90;;;;;;5136519;27;20167;-67
2023/12/01 02:23:11;;;;;;;72.70;36.27;;;0.50;99.90;;;;;;5136086;27;20172;-67
2023/12/01 02:25:37;;;;;;;76.20;36.40;;;0.50;99.90;;;;;;5136440;27;20279;-67
2023/12/01 02:28:03;;;;;;;71.57;35.40;;;0.40;99.90;;;;;;5117698;27;20206;-67
2023/12/01 02:30:29;;;;;;;79.93;37.47;;;0.40;99.90;;;;;;5136373;27;20168;-67
2023/12/01 02:32:54;;;;;;;73.90;36.97;;;0.30;99.90;;;;;;5136398;27;20681;-67
2023/12/01 02:35:20;;;;;;;74.67;37.30;;;0.30;99.90;;;;;;5136227;27;20545;-67
2023/12/01 02:37:46;;;;;;;69.43;34.13;;;0.30;99.90;;;;;;5135836;27;20188;-67
2023/12/01 02:40:16;;;;;;;68.20;35.10;;;0.30;99.90;;;;;;5117534;27;20202;-67
2023/12/01 02:42:49;;;;;;;65.33;32.00;;;0.20;99.90;;;;;;5117698;27;20180;-67
2023/12/01 02:45:16;;;;;;;63.27;31.47;;;0.30;99.90;;;;;;5136092;27;20614;-67
2023/12/01 02:47:45;;;;;;;62.63;30.17;;;0.20;99.90;;;;;;5136230;27;20578;-67
2023/12/01 02:50:12;;;;;;;64.63;29.73;;;0.30;99.90;;;;;;5136432;27;20211;-66
2023/12/01 02:52:38;;;;;;;59.13;29.53;;;0.30;99.90;;;;;;5135580;27;20200;-67
2023/12/01 02:55:07;;;;;;;52.17;28.67;;;0.30;99.90;;;;;;5135936;27;20294;-67
2023/12/01 02:57:39;;;;;;;51.80;27.13;;;0.20;99.90;;;;;;5117312;27;20199;-67
2023/12/01 03:00:08;;;;;;;52.53;25.90;;;0.30;99.90;;;;;;5136324;27;20534;-67
2023/12/01 03:02:34;;;;;;;43.17;25.20;;;0.30;99.90;;;;;;5135938;27;20207;-67
2023/12/01 03:05:00;;;;;;;43.67;24.80;;;0.20;99.90;;;;;;5135668;27;20215;-67
2023/12/01 03:07:26;;;;;;;48.20;24.30;;;0.30;99.90;;;;;;5135104;27;20574;-67
2023/12/01 03:09:52;;;;;;;46.23;23.00;;;0.20;99.90;;;;;;5116952;27;20620;-67
2023/12/01 03:12:17;;;;;;;37.93;22.50;;;0.20;99.90;;;;;;5135355;27;20244;-67
2023/12/01 03:14:43;;;;;;;41.30;22.00;;;0.20;99.90;;;;;;5135412;27;20544;-67
2023/12/01 03:17:09;;;;;;;43.17;22.53;;;0.30;99.90;;;;;;5116862;27;20195;-67
2023/12/01 03:19:35;;;;;;;40.90;23.43;;;0.30;99.90;;;;;;5116899;27;20206;-67
2023/12/01 03:22:01;;;;;;;35.23;22.03;;;0.20;99.90;;;;;;5135020;27;20224;-67
2023/12/01 03:24:26;;;;;;;45.10;23.47;;;0.30;99.90;;;;;;5135692;27;20179;-67
2023/12/01 03:26:52;;;;;;;45.33;24.40;;;0.20;99.90;;;;;;5135080;27;20220;-67
2023/12/01 03:29:19;;;;;;;45.30;24.70;;;0.20;99.90;;;;;;5135025;27;20191;-67
2023/12/01 03:31:44;;;;;;;47.57;26.17;;;0.20;99.90;;;;;;5135169;27;20286;-67
2023/12/01 03:34:10;;;;;;;57.93;26.93;;;0.20;99.90;;;;;;5135340;27;20629;-67
2023/12/01 03:36:36;;;;;;;60.50;28.67;;;0.10;99.90;;;;;;5134627;27;20195;-67
2023/12/01 03:39:02;;;;;;;56.83;30.17;;;0.10;99.90;;;;;;5134243;27;20217;-68
2023/12/01 03:41:27;;;;;;;50.93;28.90;;;0.00;99.90;;;;;;5135033;27;20180;-67
2023/12/01 03:43:53;;;;;;;56.83;28.63;;;0.10;99.90;;;;;;5134770;27;20702;-67
2023/12/01 03:46:19;;;;;;;62.00;28.97;;;0.10;99.90;;;;;;5134403;27;20192;-67
2023/12/01 03:48:44;;;;;;;58.13;28.70;;;0.10;99.90;;;;;;5135340;27;20606;-67
2023/12/01 03:51:11;;;;;;;61.80;28.27;;;0.10;99.90;;;;;;5134438;27;20234;-66
2023/12/01 03:53:37;;;;;;;55.50;27.17;;;0.10;99.90;;;;;;5135031;27;20628;-67
2023/12/01 03:56:04;;;;;;;52.73;28.70;;;0.10;99.90;;;;;;5134640;27;20228;-67
2023/12/01 03:58:30;;;;;;;60.03;28.00;;;0.10;99.90;;;;;;5134451;27;20191;-67
2023/12/01 04:00:55;;;;;;;55.10;27.90;;;0.10;99.90;;;;;;5116104;27;20175;-67
2023/12/01 04:03:24;;;;;;;55.53;27.10;;;0.10;99.90;;;;;;5134489;27;20171;-67
2023/12/01 04:05:50;;;;;;;56.63;28.57;;;0.10;99.90;;;;;;5134410;27;20172;-66
2023/12/01 04:08:16;;;;;;;54.93;27.17;;;0.10;99.90;;;;;;5134048;27;20202;-66
2023/12/01 04:10:45;;;;;;;47.13;26.37;;;0.10;99.90;;;;;;5134326;27;20617;-66
2023/12/01 04:13:12;;;;;;;52.70;25.30;;;0.10;99.90;;;;;;5115997;27;20175;-67
2023/12/01 04:15:39;;;;;;;49.13;24.33;;;0.10;99.90;;;;;;5134310;27;20242;-66
2023/12/01 04:18:06;;;;;;;47.63;25.43;;;0.10;99.90;;;;;;5134352;27;20658;-66
2023/12/01 04:20:38;;;;;;;55.40;26.43;;;0.10;99.90;;;;;;5115902;27;20540;-66
2023/12/01 04:23:09;;;;;;;41.90;24.43;;;0.10;99.90;;;;;;5134008;27;20183;-67
2023/12/01 04:25:39;;;;;;;48.10;26.27;;;0.10;99.90;;;;;;5115855;28;20597;-67
2023/12/01 04:28:07;;;;;;;61.77;28.93;;;0.00;99.90;;;;;;5134188;27;20677;-67
2023/12/01 04:30:34;;;;;;;59.03;27.53;;;0.00;99.90;;;;;;5115811;27;20207;-67
2023/12/01 04:33:00;;;;;;;63.90;28.53;;;0.00;99.90;;;;;;5134741;27;20203;-67
2023/12/01 04:35:31;;;;;;;61.97;29.33;;;-0.10;99.90;;;;;;5115653;28;20176;-67
2023/12/01 04:37:59;;;;;;;59.20;28.17;;;-0.10;99.90;;;;;;5133942;28;20199;-67
2023/12/01 04:40:27;;;;;;;56.00;28.13;;;-0.10;99.90;;;;;;5134031;28;20210;-67
2023/12/01 04:42:54;;;;;;;60.20;29.33;;;-0.10;99.90;;;;;;5115757;28;20179;-66
2023/12/01 04:45:24;;;;;;;60.43;27.07;;;-0.10;99.90;;;;;;5115380;28;20195;-66
2023/12/01 04:47:51;;;;;;;55.00;24.53;;;-0.10;99.90;;;;;;5133910;28;20188;-66
2023/12/01 04:50:24;;;;;;;51.80;26.00;;;-0.10;99.90;;;;;;5115966;27;20309;-66
2023/12/01 04:52:56;;;;;;;45.63;25.43;;;-0.10;99.90;;;;;;5138129;27;20192;-66
2023/12/01 04:55:30;;;;;;;49.50;24.03;;;-0.20;99.90;;;;;;5138328;27;20164;-66
2023/12/01 04:57:58;;;;;;;50.73;25.07;;;-0.20;99.90;;;;;;5138163;27;20187;-66
2023/12/01 05:00:25;;;;;;;47.70;23.80;;;-0.20;99.90;;;;;;5138056;27;20549;-66
2023/12/01 05:03:07;;;;;;;40.67;21.63;;;-0.30;99.90;;;;;;5119629;27;20179;-66
2023/12/01 05:05:38;;;;;;;40.20;19.50;;;-0.30;99.90;;;;;;5119528;27;20184;-66
2023/12/01 05:08:05;;;;;;;35.63;20.00;;;-0.30;99.90;;;;;;5119239;27;20581;-66
2023/12/01 05:10:32;;;;;;;45.53;23.03;;;-0.30;99.90;;;;;;5137818;27;20267;-66
2023/12/01 05:13:02;;;;;;;40.03;20.90;;;-0.30;99.90;;;;;;5137635;27;20253;-66
2023/12/01 05:15:30;;;;;;;39.27;19.50;;;-0.30;99.90;;;;;;5137912;27;20193;-67
2023/12/01 05:18:05;;;;;;;33.83;20.03;;;-0.30;99.90;;;;;;5119128;27;20196;-65
2023/12/01 05:20:31;;;;;;;40.53;21.00;;;-0.40;99.90;;;;;;5137621;27;20175;-67
2023/12/01 05:23:05;;;;;;;38.90;21.20;;;-0.30;99.90;;;;;;5118830;27;20241;-66
2023/12/01 05:25:35;;;;;;;33.47;20.37;;;-0.30;99.90;;;;;;5137882;27;20160;-66
2023/12/01 05:28:06;;;;;;;42.57;23.70;;;-0.30;99.90;;;;;;5137706;27;20279;-66
2023/12/01 05:30:36;;;;;;;43.70;22.53;;;-0.30;99.90;;;;;;5119131;27;20267;-66
2023/12/01 05:33:04;;;;;;;41.87;21.90;;;-0.30;99.90;;;;;;5137268;27;20208;-67
2023/12/01 05:35:31;;;;;;;39.80;22.13;;;-0.30;99.90;;;;;;5137311;27;20179;-67
2023/12/01 05:37:58;;;;;;;50.63;22.67;;;-0.30;99.90;;;;;;5136932;27;20669;-66
2023/12/01 05:40:25;;;;;;;47.67;22.60;;;-0.30;99.90;;;;;;5118757;27;20196;-66
2023/12/01 05:42:54;;;;;;;43.27;23.23;;;-0.30;99.90;;;;;;5137191;27;20175;-67
2023/12/01 05:45:21;;;;;;;45.17;22.97;;;-0.30;99.90;;;;;;5136930;27;20677;-68
2023/12/01 05:47:50;;;;;;;40.10;21.57;;;-0.30;99.90;;;;;;5137010;27;20665;-68
2023/12/01 05:50:30;;;;;;;39.27;22.90;;;-0.30;99.90;;;;;;5137046;27;20175;-69
2023/12/01 05:53:01;;;;;;;42.37;21.17;;;-0.30;99.90;;;;;;5136679;27;20318;-68
2023/12/01 05:55:29;;;;;;;40.93;21.40;;;-0.30;99.90;;;;;;5118472;27;20311;-67
2023/12/01 05:58:01;;;;;;;45.07;24.03;;;-0.30;99.90;;;;;;5118382;27;20196;-67
2023/12/01 06:00:31;;;;;;;42.67;22.50;;;-0.30;99.90;;;;;;5118438;27;20204;-67
2023/12/01 06:03:06;;;;;;;42.67;21.43;;;-0.40;99.90;;;;;;5117698;27;20175;-67
2023/12/01 06:05:32;;;;;;;37.10;21.87;;;-0.30;99.90;;;;;;5136744;27;20641;-67
2023/12/01 06:08:00;;;;;;;36.80;20.50;;;-0.40;99.90;;;;;;5136361;27;20195;-67
2023/12/01 06:10:28;;;;;;;42.60;21.87;;;-0.30;99.90;;;;;;5118117;27;20190;-67
2023/12/01 06:12:54;;;;;;;34.07;20.80;;;-0.30;99.90;;;;;;5118051;27;20203;-67
2023/12/01 06:15:20;;;;;;;39.73;22.77;;;-0.30;99.90;;;;;;5118093;27;20171;-67
2023/12/01 06:17:47;;;;;;;36.43;21.70;;;-0.30;99.90;;;;;;5136616;27;20222;-67
2023/12/01 06:20:17;;;;;;;39.90;22.63;;;-0.30;99.90;;;;;;5136674;27;20198;-67
2023/12/01 06:22:50;;;;;;;37.47;21.27;;;-0.30;99.90;;;;;;5136438;27;20160;-67
2023/12/01 06:25:18;;;;;;;38.20;22.17;;;-0.20;99.90;;;;;;5117934;27;20553;-67
2023/12/01 06:27:45;;;;;;;35.70;21.13;;;-0.20;99.90;;;;;;5117833;27;20207;-67
2023/12/01 06:30:13;;;;;;;33.27;21.63;;;-0.20;99.90;;;;;;5136212;27;20228;-68
2023/12/01 06:32:44;;;;;;;43.20;21.97;;;-0.20;99.90;;;;;;5136422;27;20587;-67
2023/12/01 06:35:12;;;;;;;39.20;22.23;;;-0.20;99.90;;;;;;5117688;27;20218;-67
2023/12/01 06:37:39;;;;;;;40.73;21.47;;;-0.20;99.90;;;;;;5135747;27;20215;-67
2023/12/01 06:40:11;;;;;;;34.43;20.83;;;-0.20;99.90;;;;;;5136021;27;20232;-68
2023/12/01 06:42:55;;;;;;;35.70;22.00;;;-0.20;99.90;;;;;;5136459;27;20174;-67
2023/12/01 06:45:23;;;;;;;36.60;21.13;;;-0.20;99.90;;;;;;5117480;27;20199;-67
2023/12/01 06:47:50;;;;;;;36.57;20.27;;;-0.20;99.90;;;;;;5135791;27;20579;-67
2023/12/01 06:50:19;;;;;;;33.83;21.37;;;-0.20;99.90;;;;;;5135909;27;20589;-67
2023/12/01 06:52:47;;;;;;;36.30;21.57;;;-0.20;99.90;;;;;;5135409;27;20224;-67
2023/12/01 06:55:13;;;;;;;42.47;22.60;;;-0.20;99.90;;;;;;5117413;27;20172;-67
2023/12/01 06:57:41;;;;;;;38.33;22.63;;;-0.20;99.90;;;;;;5135636;27;20244;-68
2023/12/01 07:00:28;;;;;;;38.50;22.57;;;-0.10;99.90;;;;;;5135995;27;20189;-67
2023/12/01 07:03:04;;;;;;;38.83;20.90;;;-0.10;99.90;;;;;;5117239;27;20175;-67
2023/12/01 07:05:31;;;;;;;37.90;22.00;;;-0.10;99.90;;;;;;5135876;27;20243;-67
2023/12/01 07:07:58;;;;;;;33.17;21.30;;;-0.10;99.90;;;;;;5135179;27;20206;-67
2023/12/01 07:10:25;;;;;;;39.77;21.50;;;-0.10;99.90;;;;;;5135370;27;20214;-67
2023/12/01 07:12:52;;;;;;;32.30;20.20;;;-0.10;99.90;;;;;;5117123;27;20199;-67
2023/12/01 07:15:22;;;;;;;38.63;21.90;;;-0.10;99.90;;;;;;5116034;27;20535;-67
2023/12/01 07:17:52;;;;;;;40.70;22.07;;;-0.10;99.90;;;;;;5116762;27;20204;-67
2023/12/01 07:20:18;;;;;;;40.87;23.90;;;-0.10;99.90;;;;;;5135281;27;20707;-67
2023/12/01 07:22:45;;;;;;;41.97;23.37;;;-0.10;99.90;;;;;;5116457;27;20180;-67
2023/12/01 07:25:21;;;;;;;37.47;23.13;;;-0.10;99.90;;;;;;5135190;27;20206;-67
2023/12/01 07:27:52;;;;;;;38.33;21.37;;;-0.10;99.90;;;;;;5116759;27;20203;-67
2023/12/01 07:30:18;;;;;;;42.67;23.43;;;-0.10;99.90;;;;;;5135168;27;20242;-67
2023/12/01 07:32:48;;;;;;;38.77;22.80;;;-0.10;99.90;;;;;;5116525;27;20203;-67
2023/12/01 07:35:14;;;;;;;34.80;21.47;;;0.00;99.90;;;;;;5116525;27;20263;-68
2023/12/01 07:37:46;;;;;;;25.07;18.57;;;-0.10;99.90;;;;;;5134732;27;20210;-67
2023/12/01 07:40:23;;;;;;;35.33;20.13;;;-0.10;99.90;;;;;;5116691;27;20207;-67
2023/12/01 07:42:50;;;;;;;30.23;18.57;;;-0.10;99.90;;;;;;5116470;27;20174;-67
2023/12/01 07:45:17;;;;;;;38.20;21.47;;;-0.10;99.90;;;;;;5134563;27;20191;-67
2023/12/01 07:47:47;;;;;;;31.47;21.13;;;0.00;99.90;;;;;;5116750;27;20674;-67
2023/12/01 07:50:14;;;;;;;32.50;20.23;;;0.00;99.90;;;;;;5135098;27;20258;-67
2023/12/01 07:52:43;;;;;;;34.13;21.33;;;-0.10;99.90;;;;;;5134832;27;20195;-68
2023/12/01 07:55:09;;;;;;;35.90;21.33;;;0.00;99.90;;;;;;5134955;27;20206;-67
2023/12/01 07:57:36;;;;;;;39.43;22.33;;;0.00;99.90;;;;;;5116195;27;20232;-67
2023/12/01 08:00:05;;;;;;;38.43;21.63;;;0.00;99.90;;;;;;5135119;27;20626;-67
2023/12/01 08:02:32;;;;;;;34.17;19.87;;;-0.10;99.90;;;;;;5134509;27;20180;-68
2023/12/01 08:04:58;;;;;;;40.27;21.10;;;-0.10;99.90;;;;;;5116096;27;20187;-68
2023/12/01 08:07:24;;;;;;;37.90;21.00;;;-0.10;99.90;;;;;;5134192;27;20244;-68
2023/12/01 08:09:49;;;;;;;41.77;21.97;;;-0.10;99.90;;;;;;5134417;27;20184;-68
2023/12/01 08:12:19;;;;;;;40.17;22.87;;;-0.10;99.90;;;;;;5134380;27;20208;-68
2023/12/01 08:14:45;;;;;;;45.63;22.90;;;-0.10;99.90;;;;;;5134547;27;20187;-67
2023/12/01 08:17:10;;;;;;;39.23;24.10;;;-0.10;99.90;;;;;;5134407;27;20199;-68
2023/12/01 08:19:36;;;;;;;41.70;23.63;;;-0.10;99.90;;;;;;5134494;27;20172;-67
2023/12/01 08:22:04;;;;;;;39.13;23.53;;;-0.10;99.90;;;;;;5133996;27;20207;-67
2023/12/01 08:24:29;;;;;;;36.80;22.40;;;-0.10;99.90;;;;;;5115807;27;20183;-67
2023/12/01 08:26:55;;;;;;;37.67;24.77;;;-0.10;99.90;;;;;;5134168;27;20206;-67
2023/12/01 08:29:21;;;;;;;36.97;23.33;;;-0.10;99.90;;;;;;5115738;28;20191;-68
2023/12/01 08:31:46;;;;;;;45.67;24.17;;;-0.10;99.90;;;;;;5134726;27;20574;-67
2023/12/01 08:34:12;;;;;;;46.33;25.63;;;-0.10;99.90;;;;;;5134105;27;20224;-67
2023/12/01 08:36:38;;;;;;;42.70;24.97;;;-0.10;99.90;;;;;;5115570;28;20195;-67
2023/12/01 08:39:04;;;;;;;50.03;26.13;;;-0.20;99.90;;;;;;5133696;28;20180;-67
2023/12/01 08:41:30;;;;;;;45.17;26.13;;;-0.10;99.90;;;;;;5134050;28;20184;-67
2023/12/01 08:43:56;;;;;;;41.43;23.77;;;-0.10;99.90;;;;;;5134245;28;20175;-67
2023/12/01 08:46:22;;;;;;;44.93;26.60;;;-0.10;99.90;;;;;;5133680;28;20218;-67
2023/12/01 08:48:48;;;;;;;48.17;28.77;;;-0.10;99.90;;;;;;5134005;28;20665;-67
2023/12/01 08:51:14;;;;;;;49.03;27.33;;;-0.10;99.90;;;;;;5133837;28;20206;-67
2023/12/01 08:53:39;;;;;;;53.03;28.73;;;-0.10;99.90;;;;;;5133741;28;20172;-68
2023/12/01 08:56:07;;;;;;;51.37;26.90;;;-0.10;99.90;;;;;;5134152;28;20229;-67
2023/12/01 08:58:33;;;;;;;54.37;28.17;;;-0.10;99.90;;;;;;5133801;28;20194;-68
2023/12/01 09:00:58;;;;;;;55.10;28.67;;;0.00;99.90;;;;;;5133792;28;20167;-67
2023/12/01 09:03:24;;;;;;;49.90;25.40;;;0.00;99.90;;;;;;5134505;28;20175;-67
2023/12/01 09:05:50;;;;;;;53.67;28.70;;;-0.10;99.90;;;;;;5134802;28;20207;-67
2023/12/01 09:08:16;;;;;;;54.13;28.80;;;-0.10;99.90;;;;;;5133700;28;20195;-67
2023/12/01 09:10:41;;;;;;;51.47;27.87;;;0.00;99.90;;;;;;5133777;28;20190;-68
2023/12/01 09:13:08;;;;;;;50.50;27.03;;;-0.10;99.90;;;;;;5115204;28;20211;-67
2023/12/01 09:15:34;;;;;;;50.83;28.17;;;0.00;99.90;;;;;;5133676;28;20585;-67
2023/12/01 09:17:59;;;;;;;57.27;30.60;;;0.00;99.90;;;;;;5134108;28;20192;-67
2023/12/01 09:20:25;;;;;;;53.97;28.73;;;0.00;99.90;;;;;;5133867;28;20175;-67
2023/12/01 09:22:51;;;;;;;54.13;28.47;;;0.00;99.90;;;;;;5133478;28;20225;-67
2023/12/01 09:25:17;;;;;;;45.53;25.77;;;0.00;99.90;;;;;;5115092;28;20180;-67
2023/12/01 09:27:43;;;;;;;56.20;29.13;;;0.00;99.90;;;;;;5133703;28;20203;-67
2023/12/01 09:30:13;;;;;;;58.40;30.50;;;0.00;99.90;;;;;;5133458;28;20588;-67
2023/12/01 09:32:40;;;;;;;53.40;29.87;;;0.00;99.90;;;;;;5114981;28;20199;-67
2023/12/01 09:35:06;;;;;;;54.80;29.43;;;0.00;99.90;;;;;;5133383;28;20585;-67
2023/12/01 09:37:32;;;;;;;59.90;29.80;;;0.00;99.90;;;;;;5134046;27;20259;-67
2023/12/01 09:39:58;;;;;;;52.93;28.33;;;0.00;99.90;;;;;;5137355;27;20187;-67
2023/12/01 09:42:24;;;;;;;57.70;29.63;;;0.00;99.90;;;;;;5137116;27;20570;-67
2023/12/01 09:44:57;;;;;;;58.67;30.93;;;0.00;99.90;;;;;;5118464;27;20179;-67
2023/12/01 09:47:25;;;;;;;63.27;29.37;;;0.00;99.90;;;;;;5118487;27;20217;-67
2023/12/01 09:49:51;;;;;;;54.43;28.40;;;0.00;99.90;;;;;;5137048;27;20183;-67
2023/12/01 09:52:17;;;;;;;56.20;29.77;;;0.00;99.90;;;;;;5137149;27;20681;-67
2023/12/01 09:54:43;;;;;;;55.77;29.13;;;0.00;99.90;;;;;;5137307;27;20172;-68
2023/12/01 09:57:10;;;;;;;52.77;27.57;;;0.00;99.90;;;;;;5137096;27;20206;-67
2023/12/01 09:59:36;;;;;;;59.47;28.27;;;0.10;99.90;;;;;;5137067;27;20229;-67
2023/12/01 10:02:03;;;;;;;50.20;28.23;;;0.00;99.90;;;;;;5136854;27;20615;-67
2023/12/01 10:04:33;;;;;;;47.50;27.87;;;0.00;99.90;;;;;;5136693;27;20187;-67
2023/12/01 10:07:00;;;;;;;46.87;25.47;;;0.00;99.90;;;;;;5136608;27;20202;-67
2023/12/01 10:09:33;;;;;;;45.23;25.77;;;0.00;99.90;;;;;;5136356;27;20183;-67
2023/12/01 10:12:07;;;;;;;41.30;25.30;;;-0.10;99.90;;;;;;5136828;27;20191;-67
2023/12/01 10:14:34;;;;;;;57.37;29.00;;;-0.10;99.90;;;;;;5118228;27;20719;-67
2023/12/01 10:17:05;;;;;;;47.57;26.43;;;0.00;99.90;;;;;;5136442;27;20244;-67
2023/12/01 10:19:44;;;;;;;46.17;26.53;;;0.00;99.90;;;;;;5136717;27;20164;-67
2023/12/01 10:22:12;;;;;;;57.97;31.03;;;-0.10;99.90;;;;;;5136472;27;20156;-67
2023/12/01 10:24:38;;;;;;;58.23;30.07;;;-0.10;99.90;;;;;;5136067;27;20207;-67
2023/12/01 10:27:08;;;;;;;60.10;32.83;;;0.00;99.90;;;;;;5136226;27;20231;-67
2023/12/01 10:29:35;;;;;;;53.67;29.70;;;0.00;99.90;;;;;;5117906;27;20180;-67
2023/12/01 10:32:04;;;;;;;56.53;32.43;;;0.00;99.90;;;;;;5136338;27;20195;-67
2023/12/01 10:34:30;;;;;;;57.83;28.50;;;0.00;99.90;;;;;;5136592;27;20657;-68
2023/12/01 10:36:56;;;;;;;55.67;29.80;;;0.10;99.90;;;;;;5137051;27;20191;-67
2023/12/01 10:39:27;;;;;;;55.23;28.77;;;0.10;99.90;;;;;;5136599;27;20592;-67
2023/12/01 10:41:54;;;;;;;55.87;31.77;;;0.10;99.90;;;;;;5136383;27;20495;-67
2023/12/01 10:44:24;;;;;;;58.53;32.23;;;0.10;99.90;;;;;;5136000;27;20251;-68
2023/12/01 10:46:51;;;;;;;50.77;29.33;;;0.10;99.90;;;;;;5135829;27;20211;-67
2023/12/01 10:49:17;;;;;;;55.33;29.67;;;0.10;99.90;;;;;;5136044;27;20172;-67
2023/12/01 10:51:52;;;;;;;57.53;30.63;;;0.10;99.90;;;;;;5135768;27;20237;-67
2023/12/01 10:54:23;;;;;;;53.10;29.10;;;0.20;99.90;;;;;;5135642;27;20560;-67
2023/12/01 10:57:14;;;;;;;62.73;31.20;;;0.20;99.90;;;;;;5135657;27;20680;-68
2023/12/01 10:59:45;;;;;;;56.17;29.27;;;0.20;99.90;;;;;;5136003;27;20167;-67
2023/12/01 11:02:14;;;;;;;57.57;30.40;;;0.20;99.90;;;;;;5117113;27;20174;-67
2023/12/01 11:04:44;;;;;;;57.57;30.97;;;0.10;99.90;;;;;;5117231;27;20180;-67
2023/12/01 11:07:28;;;;;;;57.97;29.40;;;0.20;99.90;;;;;;5135511;27;20608;-67
2023/12/01 11:10:30;;;;;;;57.83;29.43;;;0.20;99.90;;;;;;5135384;27;20179;-67
2023/12/01 11:13:14;;;;;;;50.27;27.53;;;0.20;99.90;;;;;;5135799;27;20187;-68
2023/12/01 11:15:43;;;;;;;52.33;27.73;;;0.10;99.90;;;;;;5135723;27;20152;-67
2023/12/01 11:18:10;;;;;;;54.10;30.63;;;0.20;99.90;;;;;;5135085;27;20692;-67
2023/12/01 11:20:44;;;;;;;57.67;29.57;;;0.20;99.90;;;;;;5135122;27;20255;-67
2023/12/01 11:23:13;;;;;;;47.10;28.13;;;0.10;99.90;;;;;;5134864;27;20648;-67
2023/12/01 11:25:48;;;;;;;56.73;29.50;;;0.10;99.90;;;;;;5135654;27;20172;-67
2023/12/01 11:28:22;;;;;;;52.77;28.47;;;0.10;99.90;;;;;;5135152;27;20187;-68
2023/12/01 11:31:47;;;;;;;57.77;28.50;;;0.10;99.90;;;;;;5135412;27;20178;-67
2023/12/01 11:33:56;;;;;;;54.37;29.33;;;0.10;99.90;;;;;;5126782;27;20183;-67
2023/12/01 11:36:35;;;;;;;56.13;28.47;;;0.10;99.90;;;;;;5134871;27;20175;-67
2023/12/01 11:41:41;;;;;;;52.87;28.97;;;0.10;99.90;;;;;;5134816;27;20249;-67
2023/12/01 11:44:37;;;;;;;55.93;27.50;;;0.00;99.90;;;;;;5135386;27;20159;-68
2023/12/01 11:47:05;;;;;;;58.23;28.50;;;0.10;99.90;;;;;;5134719;27;20333;-67
2023/12/01 11:49:33;;;;;;;57.10;27.87;;;0.00;99.90;;;;;;5135057;27;20200;-67
2023/12/01 11:52:05;;;;;;;52.10;29.10;;;0.00;99.90;;;;;;5134693;27;20655;-67
2023/12/01 11:54:33;;;;;;;53.43;28.10;;;0.10;99.90;;;;;;5134609;27;20534;-67
2023/12/01 11:56:59;;;;;;;54.40;29.60;;;0.00;99.90;;;;;;5134857;27;20278;-67
2023/12/01 11:59:25;;;;;;;52.63;28.10;;;0.00;99.90;;;;;;5134959;27;20199;-67
2023/12/01 12:01:56;;;;;;;55.73;28.00;;;0.00;99.90;;;;;;5134259;27;20176;-67
2023/12/01 12:04:23;;;;;;;55.73;27.50;;;0.00;99.90;;;;;;5134882;27;20156;-67
2023/12/01 12:06:49;;;;;;;46.13;27.73;;;0.00;99.90;;;;;;5134574;27;20211;-67
2023/12/01 12:09:19;;;;;;;48.17;27.23;;;0.00;99.90;;;;;;5134287;27;20182;-67
2023/12/01 12:11:48;;;;;;;48.50;27.90;;;0.00;99.90;;;;;;5134947;27;20203;-67
2023/12/01 12:14:15;;;;;;;51.00;29.13;;;0.00;99.90;;;;;;5134882;27;20176;-67
2023/12/01 12:16:41;;;;;;;50.10;26.60;;;0.00;99.90;;;;;;5115989;27;20198;-67
2023/12/01 12:19:07;;;;;;;55.30;25.57;;;0.00;99.90;;;;;;5134372;27;20251;-67
2023/12/01 12:21:35;;;;;;;53.83;28.03;;;0.00;99.90;;;;;;5134395;27;20683;-67
2023/12/01 12:24:01;;;;;;;50.83;26.27;;;0.00;99.90;;;;;;5134106;27;20168;-67
2023/12/01 12:26:28;;;;;;;51.13;28.73;;;0.00;99.90;;;;;;5134800;27;20534;-67
2023/12/01 12:29:03;;;;;;;51.90;27.90;;;0.00;99.90;;;;;;5134388;27;20178;-68
2023/12/01 12:31:31;;;;;;;45.00;26.43;;;0.00;99.90;;;;;;5115878;27;20206;-67
2023/12/01 12:34:02;;;;;;;46.50;26.97;;;0.00;99.90;;;;;;5134327;27;20167;-67
2023/12/01 12:36:32;;;;;;;52.03;25.77;;;-0.10;99.90;;;;;;5115756;27;20168;-67
2023/12/01 12:39:04;;;;;;;50.60;27.63;;;-0.10;99.90;;;;;;5134045;28;20180;-67
2023/12/01 12:41:32;;;;;;;54.10;27.67;;;-0.10;99.90;;;;;;5134261;28;20172;-67